Terminal Aerodrome Forecast
Issued by NWS

Home | Current Version | Previous Version | Text Only | Print | Product List | Glossary On
Versions: 1 2 3 4 5 6 7 8 9 10 11 12 13 14 15 16 17 18 19 20 21 22 23 24
213
FTUS43 KGRR 221126
TAFAZO
TAF
KAZO 221126Z 2212/2312 07008KT P6SM OVC150
     FM230000 09010G20KT P6SM BKN045
     FM230300 10012G22KT P6SM BKN025
     FM230500 13012G22KT P6SM OVC008
     FM230700 13012G22KT 4SM -RA BR OVC003=

USA.gov is the U.S. government's official web portal to all federal, state and local government web resources and services.